createdAt,value
2023-05-05T00:01:09.035Z,14.34
2023-05-05T00:03:35.814Z,14.32
2023-05-05T00:06:03.158Z,14.25
2023-05-05T00:08:30.030Z,14.19
2023-05-05T00:10:57.449Z,14.13
2023-05-05T00:13:24.407Z,14.08
2023-05-05T00:15:52.481Z,14.05
2023-05-05T00:18:19.608Z,14.00
2023-05-05T00:20:47.435Z,14.02
2023-05-05T00:23:19.669Z,13.98
2023-05-05T00:25:46.252Z,14.04
2023-05-05T00:28:14.368Z,14.04
2023-05-05T00:30:41.413Z,14.02
2023-05-05T00:33:07.889Z,13.98
2023-05-05T00:35:34.619Z,13.98
2023-05-05T00:38:01.002Z,13.98
2023-05-05T00:40:27.724Z,13.98
2023-05-05T00:42:54.433Z,14.00
2023-05-05T00:45:20.869Z,14.03
2023-05-05T00:48:06.577Z,14.02
2023-05-05T00:50:33.130Z,14.03
2023-05-05T00:53:04.915Z,14.03
2023-05-05T00:55:32.238Z,13.98
2023-05-05T00:58:00.384Z,13.98
2023-05-05T01:00:27.871Z,13.99
2023-05-05T01:02:54.512Z,13.98
2023-05-05T01:05:23.153Z,14.01
2023-05-05T01:08:18.434Z,14.06
2023-05-05T01:11:04.065Z,14.04
2023-05-05T01:13:39.509Z,14.07
2023-05-05T01:16:18.157Z,14.08
2023-05-05T01:18:47.764Z,14.12
2023-05-05T01:21:23.526Z,14.11
2023-05-05T01:24:08.739Z,14.17
2023-05-05T01:26:55.206Z,14.25
2023-05-05T01:29:44.918Z,14.35
2023-05-05T01:32:14.373Z,14.36
2023-05-05T01:34:49.795Z,14.43
2023-05-05T01:37:22.812Z,14.46
2023-05-05T01:39:54.334Z,14.50
2023-05-05T01:42:22.320Z,14.51
2023-05-05T01:44:50.828Z,14.54
2023-05-05T01:47:20.839Z,14.58
2023-05-05T01:49:48.680Z,14.61
2023-05-05T01:52:16.170Z,14.64
2023-05-05T01:54:43.983Z,14.66
2023-05-05T01:57:11.691Z,14.67
2023-05-05T01:59:39.719Z,14.67
2023-05-05T02:02:08.274Z,14.70
2023-05-05T02:04:37.305Z,14.74
2023-05-05T02:07:05.012Z,14.78
2023-05-05T02:09:32.716Z,14.80
2023-05-05T02:12:00.534Z,14.82
2023-05-05T02:14:29.483Z,14.82
2023-05-05T02:16:58.058Z,14.81
2023-05-05T02:19:34.287Z,14.80
2023-05-05T02:22:00.873Z,14.80
2023-05-05T02:24:27.340Z,14.76
2023-05-05T02:26:56.459Z,14.66
2023-05-05T02:29:29.517Z,14.57
2023-05-05T02:32:02.102Z,14.52
2023-05-05T02:34:34.882Z,14.51
2023-05-05T02:37:05.232Z,14.47
2023-05-05T02:39:35.361Z,14.43
2023-05-05T02:42:03.913Z,14.40
2023-05-05T02:44:32.895Z,14.39
2023-05-05T02:46:59.383Z,14.36
2023-05-05T02:49:25.885Z,14.30
2023-05-05T02:51:52.455Z,14.23
2023-05-05T02:54:19.370Z,14.16
2023-05-05T02:56:54.302Z,14.09
2023-05-05T02:59:50.840Z,13.99
2023-05-05T03:02:17.213Z,13.85
2023-05-05T03:04:50.706Z,13.74
2023-05-05T03:07:33.399Z,13.61
2023-05-05T03:10:13.823Z,13.56
2023-05-05T03:12:46.767Z,13.47
2023-05-05T03:15:14.213Z,13.36
2023-05-05T03:17:43.022Z,13.32
2023-05-05T03:20:11.128Z,13.27
2023-05-05T03:22:38.122Z,13.27
2023-05-05T03:25:05.042Z,13.25
2023-05-05T03:27:31.648Z,13.19
2023-05-05T03:29:58.044Z,13.14
2023-05-05T03:32:24.470Z,13.11
2023-05-05T03:34:50.967Z,13.11
2023-05-05T03:37:17.304Z,13.13
2023-05-05T03:39:43.645Z,13.09
2023-05-05T03:42:10.072Z,13.06
2023-05-05T03:44:36.578Z,13.03
2023-05-05T03:47:02.990Z,13.00
2023-05-05T03:49:29.425Z,12.97
2023-05-05T03:51:56.195Z,12.93
2023-05-05T03:54:22.646Z,12.90
2023-05-05T03:56:49.096Z,12.89
2023-05-05T03:59:15.920Z,12.85
2023-05-05T04:01:42.244Z,12.85
2023-05-05T04:04:09.452Z,12.86
2023-05-05T04:06:35.957Z,12.91
2023-05-05T04:09:03.186Z,12.92
2023-05-05T04:11:29.599Z,12.91
2023-05-05T04:13:56.160Z,12.89
2023-05-05T04:16:22.834Z,12.88
2023-05-05T04:18:49.527Z,12.87
2023-05-05T04:21:16.082Z,12.82
2023-05-05T04:23:42.523Z,12.80
2023-05-05T04:26:08.941Z,12.80
2023-05-05T04:28:35.344Z,12.77
2023-05-05T04:31:04.780Z,12.78
2023-05-05T04:33:31.261Z,12.78
2023-05-05T04:35:58.278Z,12.79
2023-05-05T04:38:24.873Z,12.80
2023-05-05T04:40:51.310Z,12.78
2023-05-05T04:43:17.719Z,12.77
2023-05-05T04:45:54.189Z,12.78
2023-05-05T04:48:20.838Z,12.79
2023-05-05T04:50:47.398Z,12.79
2023-05-05T04:53:13.854Z,12.83
2023-05-05T04:55:40.328Z,12.83
2023-05-05T04:58:06.669Z,12.86
2023-05-05T05:00:33.175Z,12.87
2023-05-05T05:02:59.633Z,12.87
2023-05-05T05:05:26.094Z,12.88
2023-05-05T05:07:52.574Z,12.90
2023-05-05T05:10:19.180Z,12.93
2023-05-05T05:12:47.914Z,12.96
2023-05-05T05:15:14.563Z,12.98
2023-05-05T05:17:41.030Z,13.19
2023-05-05T05:20:08.231Z,14.53
2023-05-05T05:22:38.093Z,16.11
2023-05-05T05:25:04.849Z,17.85
2023-05-05T05:27:31.376Z,18.99
2023-05-05T05:29:59.074Z,19.96
2023-05-05T05:32:25.460Z,20.76
2023-05-05T05:34:52.073Z,20.72
2023-05-05T05:37:18.506Z,20.49
2023-05-05T05:39:51.993Z,20.80
2023-05-05T05:42:18.569Z,20.97
2023-05-05T05:44:45.210Z,21.46
2023-05-05T05:47:11.802Z,21.93
2023-05-05T05:49:38.217Z,21.81
2023-05-05T05:52:04.706Z,22.09
2023-05-05T05:54:32.636Z,22.48
2023-05-05T05:56:59.128Z,22.71
2023-05-05T05:59:25.723Z,23.00
2023-05-05T06:01:52.116Z,23.41
2023-05-05T06:04:18.559Z,23.35
2023-05-05T06:06:44.968Z,22.92
2023-05-05T06:09:11.452Z,22.66
2023-05-05T06:11:37.786Z,22.90
2023-05-05T06:14:04.206Z,23.23
2023-05-05T06:16:30.804Z,23.68
2023-05-05T06:18:57.285Z,23.31
2023-05-05T06:21:23.903Z,21.80
2023-05-05T06:23:50.904Z,20.54
2023-05-05T06:26:17.351Z,19.67
2023-05-05T06:28:43.739Z,19.16
2023-05-05T06:31:10.255Z,18.86
2023-05-05T06:33:37.790Z,18.75
2023-05-05T06:36:04.466Z,18.51
2023-05-05T06:38:31.018Z,18.40
2023-05-05T06:40:58.531Z,18.27
2023-05-05T06:43:25.216Z,18.08
2023-05-05T06:45:51.949Z,18.04
2023-05-05T06:48:18.485Z,18.21
2023-05-05T06:50:45.099Z,18.33
2023-05-05T06:53:11.641Z,18.35
2023-05-05T06:55:38.155Z,18.28
2023-05-05T06:58:04.525Z,18.30
2023-05-05T07:00:31.023Z,18.46
2023-05-05T07:02:57.466Z,18.61
2023-05-05T07:05:23.998Z,18.59
2023-05-05T07:07:54.794Z,18.49
2023-05-05T07:10:22.636Z,18.46
2023-05-05T07:12:49.936Z,18.57
2023-05-05T07:15:26.608Z,18.74
2023-05-05T07:17:54.948Z,18.56
2023-05-05T07:20:21.464Z,18.59
2023-05-05T07:22:47.878Z,18.65
2023-05-05T07:25:14.389Z,18.78
2023-05-05T07:27:40.968Z,18.65
2023-05-05T07:30:11.952Z,18.49
2023-05-05T07:32:40.791Z,18.56
2023-05-05T07:35:07.409Z,18.84
2023-05-05T07:37:34.096Z,19.08
2023-05-05T07:40:00.515Z,19.14
2023-05-05T07:42:26.949Z,19.13
2023-05-05T07:44:53.352Z,19.33
2023-05-05T07:47:19.869Z,19.50
2023-05-05T07:49:46.576Z,19.71
2023-05-05T07:52:13.106Z,19.91
2023-05-05T07:54:39.600Z,19.77
2023-05-05T07:57:06.092Z,19.71
2023-05-05T07:59:34.722Z,19.79
2023-05-05T08:02:01.444Z,19.86
2023-05-05T08:04:27.982Z,20.07
2023-05-05T08:06:54.767Z,20.22
2023-05-05T08:09:21.403Z,20.37
2023-05-05T08:11:48.011Z,20.58
2023-05-05T08:14:15.168Z,20.66
2023-05-05T08:16:41.730Z,20.75
2023-05-05T08:19:21.198Z,20.65
2023-05-05T08:21:54.482Z,20.64
2023-05-05T08:24:20.840Z,20.89
2023-05-05T08:26:47.277Z,21.16
2023-05-05T08:29:13.642Z,21.33
2023-05-05T08:31:40.149Z,21.59
2023-05-05T08:34:06.891Z,21.91
2023-05-05T08:36:33.716Z,21.82
2023-05-05T08:39:00.712Z,21.49
2023-05-05T08:41:27.999Z,21.13
2023-05-05T08:43:54.611Z,20.98
2023-05-05T08:46:22.067Z,20.90
2023-05-05T08:48:48.681Z,20.78
2023-05-05T08:51:19.918Z,20.69
2023-05-05T08:53:55.854Z,20.80
2023-05-05T08:56:25.791Z,20.91
2023-05-05T08:58:52.637Z,20.76
2023-05-05T09:01:19.348Z,20.55
2023-05-05T09:03:46.228Z,20.53
2023-05-05T09:06:13.139Z,20.73
2023-05-05T09:08:40.322Z,20.81
2023-05-05T09:11:06.907Z,20.90
2023-05-05T09:13:33.646Z,20.76
2023-05-05T09:16:00.023Z,20.70
2023-05-05T09:18:26.845Z,20.64
2023-05-05T09:20:53.427Z,20.64
2023-05-05T09:23:20.963Z,20.73
2023-05-05T09:26:02.013Z,20.85
2023-05-05T09:28:28.555Z,20.78
2023-05-05T09:30:55.041Z,20.87
2023-05-05T09:33:31.563Z,20.69
2023-05-05T09:35:58.745Z,20.73
2023-05-05T09:38:25.256Z,20.68
2023-05-05T09:40:53.193Z,20.61
2023-05-05T09:43:21.899Z,20.43
2023-05-05T09:45:49.515Z,20.24
2023-05-05T09:48:30.546Z,20.14
2023-05-05T09:50:58.338Z,20.18
2023-05-05T09:53:26.674Z,19.99
2023-05-05T09:55:58.068Z,19.94
2023-05-05T09:58:26.268Z,20.00
2023-05-05T10:00:53.894Z,19.93
2023-05-05T10:03:20.892Z,19.74
2023-05-05T10:05:56.435Z,19.59
2023-05-05T10:08:25.905Z,19.65
2023-05-05T10:10:52.513Z,19.66
2023-05-05T10:13:21.391Z,19.64
2023-05-05T10:15:51.356Z,18.76
2023-05-05T10:18:21.492Z,18.32
2023-05-05T10:20:52.027Z,17.85
2023-05-05T10:23:20.435Z,17.26
2023-05-05T10:25:54.450Z,16.88
2023-05-05T10:28:31.787Z,16.69
2023-05-05T10:31:00.535Z,16.45
2023-05-05T10:33:36.391Z,16.06
2023-05-05T10:36:06.539Z,15.98
2023-05-05T10:38:34.121Z,15.86
2023-05-05T10:41:02.139Z,15.87
2023-05-05T10:43:30.827Z,15.79
2023-05-05T10:45:58.934Z,15.74
2023-05-05T10:48:32.901Z,15.54
2023-05-05T10:51:08.266Z,15.25
2023-05-05T10:54:27.612Z,14.91
2023-05-05T10:56:54.535Z,14.63
2023-05-05T10:59:36.344Z,14.43
2023-05-05T11:02:28.951Z,14.29
2023-05-05T11:05:21.412Z,14.30
2023-05-05T11:07:50.536Z,14.23
2023-05-05T11:10:20.783Z,14.17
2023-05-05T11:13:00.112Z,14.16
2023-05-05T11:15:26.661Z,14.14
2023-05-05T11:17:54.998Z,14.09
2023-05-05T11:20:37.119Z,14.08
2023-05-05T11:23:03.695Z,14.15
2023-05-05T11:25:43.220Z,14.20
2023-05-05T11:28:18.699Z,14.17
2023-05-05T11:30:58.094Z,14.16
2023-05-05T11:33:39.907Z,14.11
2023-05-05T11:36:11.739Z,14.08
2023-05-05T11:39:05.456Z,14.17
2023-05-05T11:42:26.103Z,14.17
2023-05-05T11:44:53.394Z,14.19
2023-05-05T11:47:19.924Z,14.11
2023-05-05T11:49:46.462Z,14.00
2023-05-05T11:52:13.934Z,13.98
2023-05-05T11:54:48.616Z,13.90
2023-05-05T11:57:21.103Z,13.84
2023-05-05T11:59:53.435Z,13.92
2023-05-05T12:02:20.676Z,13.81
2023-05-05T12:04:47.791Z,13.75
2023-05-05T12:07:18.386Z,13.83
2023-05-05T12:09:46.244Z,13.85
2023-05-05T12:12:13.710Z,13.84
2023-05-05T12:14:47.339Z,13.86
2023-05-05T12:17:14.141Z,13.90
2023-05-05T12:19:54.297Z,13.96
2023-05-05T12:22:27.420Z,14.07
2023-05-05T12:25:04.037Z,14.07
2023-05-05T12:27:30.666Z,14.08
2023-05-05T12:30:10.274Z,14.08
2023-05-05T12:32:36.936Z,14.06
2023-05-05T12:35:03.638Z,14.17
2023-05-05T12:37:30.295Z,14.15
2023-05-05T12:39:56.848Z,14.18
2023-05-05T12:42:23.411Z,14.18
2023-05-05T12:44:50.087Z,14.18
2023-05-05T12:47:32.851Z,14.17
2023-05-05T12:50:00.327Z,14.19
2023-05-05T12:52:45.676Z,14.21
2023-05-05T12:55:12.923Z,14.28
2023-05-05T12:57:58.039Z,14.31
2023-05-05T13:00:25.213Z,14.30
2023-05-05T13:02:52.947Z,14.24
2023-05-05T13:05:32.742Z,14.39
2023-05-05T13:07:59.262Z,14.40
2023-05-05T13:10:25.711Z,14.34
2023-05-05T13:12:55.322Z,14.25
2023-05-05T13:15:21.794Z,14.25
2023-05-05T13:17:48.273Z,14.24
2023-05-05T13:20:15.430Z,14.12
2023-05-05T13:22:41.811Z,13.98
2023-05-05T13:25:08.541Z,14.00
2023-05-05T13:27:35.226Z,13.93
2023-05-05T13:30:01.806Z,13.91
2023-05-05T13:32:28.233Z,13.84
2023-05-05T13:34:54.599Z,13.84
2023-05-05T13:37:21.318Z,13.87
2023-05-05T13:39:47.689Z,13.87
2023-05-05T13:42:14.088Z,13.89
2023-05-05T13:44:40.488Z,13.81
2023-05-05T13:47:07.371Z,13.87
2023-05-05T13:49:35.036Z,13.93
2023-05-05T13:52:01.487Z,13.99
2023-05-05T13:54:28.035Z,13.86
2023-05-05T13:56:54.429Z,13.85
2023-05-05T13:59:21.755Z,13.89
2023-05-05T14:01:48.829Z,13.98
2023-05-05T14:04:15.445Z,14.02
2023-05-05T14:06:41.969Z,13.95
2023-05-05T14:09:08.383Z,13.99
2023-05-05T14:11:35.002Z,14.05
2023-05-05T14:14:01.631Z,14.03
2023-05-05T14:16:28.095Z,13.95
2023-05-05T14:18:54.548Z,13.94
2023-05-05T14:21:21.004Z,13.99
2023-05-05T14:23:47.356Z,14.11
2023-05-05T14:26:13.812Z,14.12
2023-05-05T14:28:40.265Z,14.07
2023-05-05T14:31:06.808Z,14.14
2023-05-05T14:33:33.246Z,14.23
2023-05-05T14:36:00.048Z,14.27
2023-05-05T14:38:26.482Z,14.20
2023-05-05T14:40:53.069Z,14.16
2023-05-05T14:43:20.649Z,14.09
2023-05-05T14:45:47.082Z,14.07
2023-05-05T14:48:13.559Z,14.11
2023-05-05T14:50:42.298Z,14.24
2023-05-05T14:53:08.863Z,14.40
2023-05-05T14:55:35.397Z,14.77
2023-05-05T14:58:01.757Z,14.98
2023-05-05T15:00:28.565Z,14.95
2023-05-05T15:02:55.088Z,15.13
2023-05-05T15:05:21.552Z,15.14
2023-05-05T15:07:48.035Z,14.99
2023-05-05T15:10:15.018Z,15.04
2023-05-05T15:12:42.713Z,14.98
2023-05-05T15:15:09.934Z,14.91
2023-05-05T15:17:38.610Z,14.70
2023-05-05T15:20:06.709Z,14.63
2023-05-05T15:22:33.163Z,14.62
2023-05-05T15:24:59.714Z,14.68
2023-05-05T15:27:26.365Z,14.73
2023-05-05T15:29:52.972Z,14.81
2023-05-05T15:32:19.325Z,14.95
2023-05-05T15:34:46.796Z,14.95
2023-05-05T15:37:14.113Z,14.99
2023-05-05T15:39:40.518Z,15.12
2023-05-05T15:42:07.379Z,15.57
2023-05-05T15:44:33.749Z,15.78
2023-05-05T15:47:00.236Z,15.71
2023-05-05T15:49:26.643Z,15.69
2023-05-05T15:51:52.975Z,15.58
2023-05-05T15:54:19.412Z,15.60
2023-05-05T15:56:45.906Z,15.69
2023-05-05T15:59:12.326Z,15.65
2023-05-05T16:01:39.034Z,15.60
2023-05-05T16:04:05.491Z,15.68
2023-05-05T16:06:32.049Z,15.46
2023-05-05T16:08:58.682Z,15.51
2023-05-05T16:11:26.526Z,15.51
2023-05-05T16:13:53.262Z,15.53
2023-05-05T16:16:19.685Z,15.72
2023-05-05T16:18:46.368Z,15.99
2023-05-05T16:21:13.157Z,16.02
2023-05-05T16:23:39.852Z,16.21
2023-05-05T16:26:06.238Z,16.33
2023-05-05T16:28:34.153Z,16.32
2023-05-05T16:31:02.300Z,16.37
2023-05-05T16:33:29.100Z,16.63
2023-05-05T16:35:55.942Z,16.67
2023-05-05T16:38:22.670Z,16.94
2023-05-05T16:40:49.027Z,17.11
2023-05-05T16:43:15.621Z,17.13
2023-05-05T16:45:42.099Z,17.19
2023-05-05T16:48:09.169Z,17.35
2023-05-05T16:50:35.944Z,17.39
2023-05-05T16:53:02.335Z,17.44
2023-05-05T16:55:28.815Z,17.69
2023-05-05T16:57:55.312Z,18.08
2023-05-05T17:00:21.824Z,18.36
2023-05-05T17:02:48.374Z,18.78
2023-05-05T17:05:15.078Z,18.82
2023-05-05T17:07:41.523Z,18.78
2023-05-05T17:10:08.579Z,18.82
2023-05-05T17:12:35.049Z,18.76
2023-05-05T17:15:02.047Z,19.04
2023-05-05T17:17:28.604Z,18.73
2023-05-05T17:19:54.981Z,18.69
2023-05-05T17:22:21.764Z,18.75
2023-05-05T17:24:48.221Z,19.06
2023-05-05T17:27:14.679Z,19.07
2023-05-05T17:29:41.309Z,18.93
2023-05-05T17:32:10.556Z,19.19
2023-05-05T17:34:37.356Z,19.49
2023-05-05T17:37:03.732Z,19.73
2023-05-05T17:39:30.975Z,19.97
2023-05-05T17:41:57.431Z,20.24
2023-05-05T17:44:23.827Z,20.35
2023-05-05T17:46:50.570Z,20.50
2023-05-05T17:49:16.919Z,20.36
2023-05-05T17:51:43.314Z,20.56
2023-05-05T17:54:09.786Z,20.63
2023-05-05T17:56:36.730Z,20.71
2023-05-05T17:59:03.201Z,20.45
2023-05-05T18:01:29.637Z,20.35
2023-05-05T18:03:56.165Z,20.00
2023-05-05T18:06:22.567Z,19.36
2023-05-05T18:08:49.297Z,18.89
2023-05-05T18:11:15.745Z,18.51
2023-05-05T18:13:43.218Z,18.20
2023-05-05T18:16:09.733Z,17.71
2023-05-05T18:18:36.317Z,17.55
2023-05-05T18:21:02.739Z,17.45
2023-05-05T18:23:29.241Z,17.39
2023-05-05T18:25:55.698Z,17.33
2023-05-05T18:28:22.102Z,17.08
2023-05-05T18:30:48.633Z,16.90
2023-05-05T18:33:15.013Z,16.64
2023-05-05T18:35:41.485Z,16.51
2023-05-05T18:38:07.991Z,16.47
2023-05-05T18:40:34.514Z,16.37
2023-05-05T18:43:00.985Z,16.22
2023-05-05T18:45:27.484Z,16.05
2023-05-05T18:47:53.992Z,15.94
2023-05-05T18:50:20.415Z,15.82
2023-05-05T18:52:46.812Z,15.73
2023-05-05T18:55:13.235Z,15.63
2023-05-05T18:57:39.788Z,15.50
2023-05-05T19:00:06.974Z,15.41
2023-05-05T19:02:33.478Z,15.31
2023-05-05T19:04:59.958Z,15.25
2023-05-05T19:07:34.883Z,15.14
2023-05-05T19:10:04.376Z,15.03
2023-05-05T19:12:30.917Z,14.94
2023-05-05T19:14:57.396Z,14.80
2023-05-05T19:17:23.999Z,14.66
2023-05-05T19:19:50.659Z,14.59
2023-05-05T19:22:21.743Z,14.51
2023-05-05T19:24:48.143Z,14.44
2023-05-05T19:27:16.565Z,14.35
2023-05-05T19:29:43.680Z,14.25
2023-05-05T19:32:10.293Z,14.15
2023-05-05T19:34:37.050Z,14.04
2023-05-05T19:37:03.593Z,13.98
2023-05-05T19:39:30.135Z,13.95
2023-05-05T19:41:56.640Z,13.89
2023-05-05T19:44:23.705Z,13.85
2023-05-05T19:46:50.391Z,13.76
2023-05-05T19:49:16.885Z,13.70
2023-05-05T19:51:43.775Z,13.58
2023-05-05T19:54:10.400Z,13.43
2023-05-05T19:56:36.906Z,13.33
2023-05-05T19:59:05.302Z,13.25
2023-05-05T20:01:33.076Z,13.18
2023-05-05T20:03:59.971Z,13.07
2023-05-05T20:06:26.962Z,12.92
2023-05-05T20:08:54.754Z,12.85
2023-05-05T20:11:21.840Z,12.85
2023-05-05T20:13:49.634Z,12.81
2023-05-05T20:16:16.379Z,12.76
2023-05-05T20:18:42.966Z,12.71
2023-05-05T20:21:09.381Z,12.67
2023-05-05T20:23:36.489Z,12.62
2023-05-05T20:26:03.138Z,12.58
2023-05-05T20:28:31.505Z,12.52
2023-05-05T20:30:57.986Z,12.47
2023-05-05T20:33:24.544Z,12.44
2023-05-05T20:35:50.943Z,12.38
2023-05-05T20:38:17.396Z,12.37
2023-05-05T20:40:43.869Z,12.32
2023-05-05T20:43:10.234Z,12.29
2023-05-05T20:45:37.107Z,12.26
2023-05-05T20:48:05.610Z,12.25
2023-05-05T20:50:32.258Z,12.23
2023-05-05T20:52:58.826Z,12.17
2023-05-05T20:55:25.770Z,12.15
2023-05-05T20:57:52.268Z,12.12
2023-05-05T21:00:18.697Z,12.09
2023-05-05T21:02:45.252Z,12.03
2023-05-05T21:05:11.816Z,12.02
2023-05-05T21:07:38.369Z,11.98
2023-05-05T21:10:05.399Z,11.91
2023-05-05T21:12:33.952Z,11.84
2023-05-05T21:15:00.532Z,11.73
2023-05-05T21:17:27.246Z,11.67
2023-05-05T21:19:54.304Z,11.62
2023-05-05T21:22:21.462Z,11.62
2023-05-05T21:24:48.151Z,11.59
2023-05-05T21:27:14.772Z,11.56
2023-05-05T21:29:41.184Z,11.50
2023-05-05T21:32:09.164Z,11.43
2023-05-05T21:34:36.108Z,11.39
2023-05-05T21:37:02.882Z,11.34
2023-05-05T21:39:30.789Z,11.32
2023-05-05T21:41:57.134Z,11.28
2023-05-05T21:44:25.448Z,11.23
2023-05-05T21:46:55.638Z,11.20
2023-05-05T21:49:22.200Z,11.15
2023-05-05T21:51:48.789Z,11.14
2023-05-05T21:54:15.799Z,11.12
2023-05-05T21:56:42.292Z,11.08
2023-05-05T21:59:08.817Z,11.03
2023-05-05T22:01:35.405Z,11.02
2023-05-05T22:04:02.077Z,10.95
2023-05-05T22:06:28.584Z,10.88
2023-05-05T22:08:56.656Z,10.83
2023-05-05T22:11:23.156Z,10.74
2023-05-05T22:13:49.505Z,10.68
2023-05-05T22:16:17.584Z,10.67
2023-05-05T22:18:44.319Z,10.67
2023-05-05T22:21:11.021Z,10.68
2023-05-05T22:23:39.010Z,10.67
2023-05-05T22:26:05.636Z,10.63
2023-05-05T22:28:32.206Z,10.61
2023-05-05T22:30:58.651Z,10.56
2023-05-05T22:33:25.125Z,10.52
2023-05-05T22:35:52.081Z,10.50
2023-05-05T22:38:18.681Z,10.50
2023-05-05T22:40:45.580Z,10.53
2023-05-05T22:43:12.188Z,10.53
2023-05-05T22:45:38.674Z,10.53
2023-05-05T22:48:05.819Z,10.55
2023-05-05T22:50:32.381Z,10.60
2023-05-05T22:52:58.824Z,10.64
2023-05-05T22:55:25.401Z,10.67
2023-05-05T22:57:52.633Z,10.71
2023-05-05T23:00:19.555Z,10.71
2023-05-05T23:02:46.193Z,10.74
2023-05-05T23:05:12.869Z,10.75
2023-05-05T23:07:39.410Z,10.76
2023-05-05T23:10:06.356Z,10.76
2023-05-05T23:12:33.045Z,10.78
2023-05-05T23:14:59.553Z,10.81
2023-05-05T23:17:26.086Z,10.83
2023-05-05T23:19:52.643Z,10.83
2023-05-05T23:22:19.080Z,10.86
2023-05-05T23:24:45.713Z,10.89
2023-05-05T23:27:12.764Z,10.90
2023-05-05T23:29:39.405Z,10.92
2023-05-05T23:32:06.348Z,10.93
2023-05-05T23:34:32.786Z,10.93
2023-05-05T23:36:59.201Z,10.93
2023-05-05T23:39:25.682Z,10.93
2023-05-05T23:41:52.061Z,10.95
2023-05-05T23:44:18.560Z,10.95
2023-05-05T23:46:44.956Z,10.89
2023-05-05T23:49:11.427Z,10.84
2023-05-05T23:51:37.804Z,10.84
2023-05-05T23:54:04.293Z,10.85
2023-05-05T23:56:31.027Z,10.87
2023-05-05T23:58:57.479Z,10.88
